sensor_id;sensor_type;location;lat;lon;timestamp;P1;durP1;ratioP1;P2;durP2;ratioP2
75885;SDS011;64561;44.018;10.144;2024-01-07T00:00:19;21.13;;;16.40;;
75885;SDS011;64561;44.018;10.144;2024-01-07T00:02:46;20.52;;;14.70;;
75885;SDS011;64561;44.018;10.144;2024-01-07T00:05:14;19.63;;;12.93;;
75885;SDS011;64561;44.018;10.144;2024-01-07T00:07:42;15.68;;;12.10;;
75885;SDS011;64561;44.018;10.144;2024-01-07T00:10:09;18.80;;;12.63;;
75885;SDS011;64561;44.018;10.144;2024-01-07T00:12:36;15.68;;;12.50;;
75885;SDS011;64561;44.018;10.144;2024-01-07T00:15:04;16.42;;;11.20;;
75885;SDS011;64561;44.018;10.144;2024-01-07T00:17:32;17.77;;;11.80;;
75885;SDS011;64561;44.018;10.144;2024-01-07T00:19:59;14.23;;;10.48;;
75885;SDS011;64561;44.018;10.144;2024-01-07T00:22:29;15.27;;;10.90;;
75885;SDS011;64561;44.018;10.144;2024-01-07T00:24:56;15.63;;;10.93;;
75885;SDS011;64561;44.018;10.144;2024-01-07T00:27:24;15.13;;;9.48;;
75885;SDS011;64561;44.018;10.144;2024-01-07T00:29:51;15.15;;;9.75;;
75885;SDS011;64561;44.018;10.144;2024-01-07T00:32:18;14.25;;;9.48;;
75885;SDS011;64561;44.018;10.144;2024-01-07T00:34:46;13.63;;;9.82;;
75885;SDS011;64561;44.018;10.144;2024-01-07T00:37:14;13.00;;;9.43;;
75885;SDS011;64561;44.018;10.144;2024-01-07T00:39:42;15.38;;;9.35;;
75885;SDS011;64561;44.018;10.144;2024-01-07T00:42:11;16.95;;;10.25;;
75885;SDS011;64561;44.018;10.144;2024-01-07T00:44:38;17.17;;;9.88;;
75885;SDS011;64561;44.018;10.144;2024-01-07T00:47:06;11.88;;;8.48;;
75885;SDS011;64561;44.018;10.144;2024-01-07T00:49:33;11.00;;;8.20;;
75885;SDS011;64561;44.018;10.144;2024-01-07T00:52:00;11.43;;;8.27;;
75885;SDS011;64561;44.018;10.144;2024-01-07T00:54:27;11.23;;;8.52;;
75885;SDS011;64561;44.018;10.144;2024-01-07T00:56:54;10.68;;;7.85;;
75885;SDS011;64561;44.018;10.144;2024-01-07T00:59:22;12.32;;;7.93;;
75885;SDS011;64561;44.018;10.144;2024-01-07T01:01:49;14.60;;;8.95;;
75885;SDS011;64561;44.018;10.144;2024-01-07T01:04:16;13.10;;;7.50;;
75885;SDS011;64561;44.018;10.144;2024-01-07T01:06:46;14.32;;;7.80;;
75885;SDS011;64561;44.018;10.144;2024-01-07T01:09:15;10.60;;;7.80;;
75885;SDS011;64561;44.018;10.144;2024-01-07T01:11:43;12.32;;;8.55;;
75885;SDS011;64561;44.018;10.144;2024-01-07T01:14:11;16.75;;;9.13;;
75885;SDS011;64561;44.018;10.144;2024-01-07T01:16:39;12.52;;;8.55;;
75885;SDS011;64561;44.018;10.144;2024-01-07T01:19:06;11.65;;;8.02;;
75885;SDS011;64561;44.018;10.144;2024-01-07T01:21:37;14.50;;;8.48;;
75885;SDS011;64561;44.018;10.144;2024-01-07T01:24:05;16.52;;;9.45;;
75885;SDS011;64561;44.018;10.144;2024-01-07T01:26:33;14.02;;;9.70;;
75885;SDS011;64561;44.018;10.144;2024-01-07T01:29:00;15.00;;;9.32;;
75885;SDS011;64561;44.018;10.144;2024-01-07T01:31:27;14.38;;;9.25;;
75885;SDS011;64561;44.018;10.144;2024-01-07T01:33:54;12.05;;;9.02;;
75885;SDS011;64561;44.018;10.144;2024-01-07T01:36:22;13.43;;;8.48;;
75885;SDS011;64561;44.018;10.144;2024-01-07T01:38:49;10.90;;;8.75;;
75885;SDS011;64561;44.018;10.144;2024-01-07T01:41:17;12.77;;;9.73;;
75885;SDS011;64561;44.018;10.144;2024-01-07T01:43:44;13.98;;;8.60;;
75885;SDS011;64561;44.018;10.144;2024-01-07T01:46:11;16.05;;;8.75;;
75885;SDS011;64561;44.018;10.144;2024-01-07T01:48:40;12.15;;;8.05;;
75885;SDS011;64561;44.018;10.144;2024-01-07T01:51:09;10.75;;;7.57;;
75885;SDS011;64561;44.018;10.144;2024-01-07T01:53:37;12.88;;;7.65;;
75885;SDS011;64561;44.018;10.144;2024-01-07T01:56:05;12.35;;;8.80;;
75885;SDS011;64561;44.018;10.144;2024-01-07T01:58:34;11.38;;;8.43;;
75885;SDS011;64561;44.018;10.144;2024-01-07T02:01:01;13.38;;;8.73;;
75885;SDS011;64561;44.018;10.144;2024-01-07T02:03:30;13.20;;;8.75;;
75885;SDS011;64561;44.018;10.144;2024-01-07T02:05:57;11.07;;;7.82;;
75885;SDS011;64561;44.018;10.144;2024-01-07T02:08:25;11.75;;;7.93;;
75885;SDS011;64561;44.018;10.144;2024-01-07T02:10:53;11.30;;;7.05;;
75885;SDS011;64561;44.018;10.144;2024-01-07T02:13:20;12.75;;;7.70;;
75885;SDS011;64561;44.018;10.144;2024-01-07T02:15:48;9.80;;;7.05;;
75885;SDS011;64561;44.018;10.144;2024-01-07T02:18:15;10.48;;;7.43;;
75885;SDS011;64561;44.018;10.144;2024-01-07T02:20:43;9.73;;;6.40;;
75885;SDS011;64561;44.018;10.144;2024-01-07T02:23:10;9.70;;;7.10;;
75885;SDS011;64561;44.018;10.144;2024-01-07T02:25:38;10.25;;;6.43;;
75885;SDS011;64561;44.018;10.144;2024-01-07T02:28:05;10.00;;;6.50;;
75885;SDS011;64561;44.018;10.144;2024-01-07T02:30:33;11.15;;;6.32;;
75885;SDS011;64561;44.018;10.144;2024-01-07T02:33:01;9.27;;;6.25;;
75885;SDS011;64561;44.018;10.144;2024-01-07T02:35:33;10.43;;;7.15;;
75885;SDS011;64561;44.018;10.144;2024-01-07T02:38:00;10.80;;;7.22;;
75885;SDS011;64561;44.018;10.144;2024-01-07T02:40:27;11.68;;;6.75;;
75885;SDS011;64561;44.018;10.144;2024-01-07T02:42:55;10.13;;;6.82;;
75885;SDS011;64561;44.018;10.144;2024-01-07T02:45:23;8.88;;;6.30;;
75885;SDS011;64561;44.018;10.144;2024-01-07T02:47:51;11.68;;;7.47;;
75885;SDS011;64561;44.018;10.144;2024-01-07T02:50:18;10.30;;;7.32;;
75885;SDS011;64561;44.018;10.144;2024-01-07T02:52:45;11.05;;;7.07;;
75885;SDS011;64561;44.018;10.144;2024-01-07T02:55:13;8.43;;;6.22;;
75885;SDS011;64561;44.018;10.144;2024-01-07T02:57:41;11.43;;;6.88;;
75885;SDS011;64561;44.018;10.144;2024-01-07T03:00:09;12.00;;;7.38;;
75885;SDS011;64561;44.018;10.144;2024-01-07T03:02:37;8.73;;;6.45;;
75885;SDS011;64561;44.018;10.144;2024-01-07T03:05:04;9.00;;;6.72;;
75885;SDS011;64561;44.018;10.144;2024-01-07T03:07:32;9.68;;;7.15;;
75885;SDS011;64561;44.018;10.144;2024-01-07T03:09:59;10.70;;;6.57;;
75885;SDS011;64561;44.018;10.144;2024-01-07T03:12:30;10.40;;;7.18;;
75885;SDS011;64561;44.018;10.144;2024-01-07T03:14:57;11.65;;;7.40;;
75885;SDS011;64561;44.018;10.144;2024-01-07T03:17:25;11.93;;;7.63;;
75885;SDS011;64561;44.018;10.144;2024-01-07T03:19:53;13.57;;;7.50;;
75885;SDS011;64561;44.018;10.144;2024-01-07T03:22:20;10.90;;;7.32;;
75885;SDS011;64561;44.018;10.144;2024-01-07T03:24:47;9.82;;;6.88;;
75885;SDS011;64561;44.018;10.144;2024-01-07T03:27:14;10.23;;;6.75;;
75885;SDS011;64561;44.018;10.144;2024-01-07T03:29:42;11.20;;;7.05;;
75885;SDS011;64561;44.018;10.144;2024-01-07T03:32:09;13.43;;;6.97;;
75885;SDS011;64561;44.018;10.144;2024-01-07T03:34:36;13.70;;;8.45;;
75885;SDS011;64561;44.018;10.144;2024-01-07T03:37:05;12.55;;;7.95;;
75885;SDS011;64561;44.018;10.144;2024-01-07T03:39:32;10.30;;;7.88;;
75885;SDS011;64561;44.018;10.144;2024-01-07T03:42:00;11.10;;;7.85;;
75885;SDS011;64561;44.018;10.144;2024-01-07T03:44:28;10.85;;;8.60;;
75885;SDS011;64561;44.018;10.144;2024-01-07T03:46:55;14.93;;;8.70;;
75885;SDS011;64561;44.018;10.144;2024-01-07T03:49:23;12.50;;;8.27;;
75885;SDS011;64561;44.018;10.144;2024-01-07T03:51:50;14.40;;;9.25;;
75885;SDS011;64561;44.018;10.144;2024-01-07T03:54:17;12.02;;;7.60;;
75885;SDS011;64561;44.018;10.144;2024-01-07T03:56:44;11.63;;;7.60;;
75885;SDS011;64561;44.018;10.144;2024-01-07T03:59:11;12.40;;;8.98;;
75885;SDS011;64561;44.018;10.144;2024-01-07T04:01:38;11.23;;;8.05;;
75885;SDS011;64561;44.018;10.144;2024-01-07T04:04:06;9.50;;;7.38;;
75885;SDS011;64561;44.018;10.144;2024-01-07T04:06:34;8.82;;;6.72;;
75885;SDS011;64561;44.018;10.144;2024-01-07T04:09:01;8.15;;;4.80;;
75885;SDS011;64561;44.018;10.144;2024-01-07T04:11:30;6.72;;;5.10;;
75885;SDS011;64561;44.018;10.144;2024-01-07T04:13:57;8.10;;;4.90;;
75885;SDS011;64561;44.018;10.144;2024-01-07T04:16:24;7.47;;;4.57;;
75885;SDS011;64561;44.018;10.144;2024-01-07T04:18:51;6.85;;;4.53;;
75885;SDS011;64561;44.018;10.144;2024-01-07T04:21:20;6.72;;;5.13;;
75885;SDS011;64561;44.018;10.144;2024-01-07T04:23:48;8.18;;;4.85;;
75885;SDS011;64561;44.018;10.144;2024-01-07T04:26:15;6.70;;;5.18;;
75885;SDS011;64561;44.018;10.144;2024-01-07T04:28:43;7.15;;;4.53;;
75885;SDS011;64561;44.018;10.144;2024-01-07T04:31:12;7.63;;;4.60;;
75885;SDS011;64561;44.018;10.144;2024-01-07T04:33:40;6.95;;;4.32;;
75885;SDS011;64561;44.018;10.144;2024-01-07T04:36:07;6.53;;;4.50;;
75885;SDS011;64561;44.018;10.144;2024-01-07T04:38:34;6.68;;;4.68;;
75885;SDS011;64561;44.018;10.144;2024-01-07T04:41:02;7.00;;;4.70;;
75885;SDS011;64561;44.018;10.144;2024-01-07T04:43:29;7.60;;;4.38;;
75885;SDS011;64561;44.018;10.144;2024-01-07T04:45:57;8.98;;;5.90;;
75885;SDS011;64561;44.018;10.144;2024-01-07T04:48:24;10.07;;;6.05;;
75885;SDS011;64561;44.018;10.144;2024-01-07T04:50:52;8.38;;;6.28;;
75885;SDS011;64561;44.018;10.144;2024-01-07T04:53:19;9.02;;;6.72;;
75885;SDS011;64561;44.018;10.144;2024-01-07T04:55:46;9.88;;;6.88;;
75885;SDS011;64561;44.018;10.144;2024-01-07T04:58:13;10.90;;;7.65;;
75885;SDS011;64561;44.018;10.144;2024-01-07T05:00:40;10.60;;;7.30;;
75885;SDS011;64561;44.018;10.144;2024-01-07T05:03:07;10.27;;;6.63;;
75885;SDS011;64561;44.018;10.144;2024-01-07T05:05:35;9.30;;;6.80;;
75885;SDS011;64561;44.018;10.144;2024-01-07T05:08:03;7.55;;;5.43;;
75885;SDS011;64561;44.018;10.144;2024-01-07T05:10:30;5.88;;;4.43;;
75885;SDS011;64561;44.018;10.144;2024-01-07T05:12:58;7.88;;;4.68;;
75885;SDS011;64561;44.018;10.144;2024-01-07T05:15:32;9.77;;;4.88;;
75885;SDS011;64561;44.018;10.144;2024-01-07T05:17:59;9.52;;;5.88;;
75885;SDS011;64561;44.018;10.144;2024-01-07T05:20:27;9.68;;;6.30;;
75885;SDS011;64561;44.018;10.144;2024-01-07T05:22:54;12.35;;;7.00;;
75885;SDS011;64561;44.018;10.144;2024-01-07T05:25:22;9.27;;;6.57;;
75885;SDS011;64561;44.018;10.144;2024-01-07T05:27:50;9.85;;;6.53;;
75885;SDS011;64561;44.018;10.144;2024-01-07T05:30:17;11.93;;;7.20;;
75885;SDS011;64561;44.018;10.144;2024-01-07T05:32:45;8.35;;;6.45;;
75885;SDS011;64561;44.018;10.144;2024-01-07T05:35:12;8.75;;;5.75;;
75885;SDS011;64561;44.018;10.144;2024-01-07T05:37:39;11.20;;;6.43;;
75885;SDS011;64561;44.018;10.144;2024-01-07T05:40:07;7.53;;;5.13;;
75885;SDS011;64561;44.018;10.144;2024-01-07T05:42:34;9.18;;;6.43;;
75885;SDS011;64561;44.018;10.144;2024-01-07T05:45:02;11.23;;;6.88;;
75885;SDS011;64561;44.018;10.144;2024-01-07T05:47:30;14.20;;;8.65;;
75885;SDS011;64561;44.018;10.144;2024-01-07T05:49:57;10.65;;;7.32;;
75885;SDS011;64561;44.018;10.144;2024-01-07T05:52:25;10.45;;;6.55;;
75885;SDS011;64561;44.018;10.144;2024-01-07T05:54:52;11.50;;;7.50;;
75885;SDS011;64561;44.018;10.144;2024-01-07T05:57:19;10.40;;;7.78;;
75885;SDS011;64561;44.018;10.144;2024-01-07T05:59:46;10.40;;;6.63;;
75885;SDS011;64561;44.018;10.144;2024-01-07T06:04:44;9.15;;;5.95;;
75885;SDS011;64561;44.018;10.144;2024-01-07T06:07:12;8.70;;;5.00;;
75885;SDS011;64561;44.018;10.144;2024-01-07T06:09:39;7.22;;;4.78;;
75885;SDS011;64561;44.018;10.144;2024-01-07T06:12:06;5.75;;;4.30;;
75885;SDS011;64561;44.018;10.144;2024-01-07T06:14:34;5.53;;;4.13;;
75885;SDS011;64561;44.018;10.144;2024-01-07T06:17:01;5.95;;;3.75;;
75885;SDS011;64561;44.018;10.144;2024-01-07T06:19:29;4.80;;;3.10;;
75885;SDS011;64561;44.018;10.144;2024-01-07T06:21:56;5.30;;;3.47;;
75885;SDS011;64561;44.018;10.144;2024-01-07T06:24:24;5.18;;;2.70;;
75885;SDS011;64561;44.018;10.144;2024-01-07T06:26:51;3.72;;;2.47;;
75885;SDS011;64561;44.018;10.144;2024-01-07T06:29:18;2.90;;;2.10;;
75885;SDS011;64561;44.018;10.144;2024-01-07T06:31:45;3.67;;;1.92;;
75885;SDS011;64561;44.018;10.144;2024-01-07T06:34:13;2.67;;;1.90;;
75885;SDS011;64561;44.018;10.144;2024-01-07T06:36:41;3.97;;;1.70;;
75885;SDS011;64561;44.018;10.144;2024-01-07T06:39:11;4.30;;;2.13;;
75885;SDS011;64561;44.018;10.144;2024-01-07T06:41:38;3.28;;;1.83;;
75885;SDS011;64561;44.018;10.144;2024-01-07T06:44:06;4.32;;;1.67;;
75885;SDS011;64561;44.018;10.144;2024-01-07T06:46:33;2.78;;;1.80;;
75885;SDS011;64561;44.018;10.144;2024-01-07T06:49:01;4.78;;;1.98;;
75885;SDS011;64561;44.018;10.144;2024-01-07T06:51:28;3.85;;;2.20;;
75885;SDS011;64561;44.018;10.144;2024-01-07T06:53:56;2.90;;;1.98;;
75885;SDS011;64561;44.018;10.144;2024-01-07T06:56:23;3.03;;;2.00;;
75885;SDS011;64561;44.018;10.144;2024-01-07T06:58:54;3.00;;;1.83;;
75885;SDS011;64561;44.018;10.144;2024-01-07T07:01:21;3.83;;;2.17;;
75885;SDS011;64561;44.018;10.144;2024-01-07T07:06:19;3.28;;;2.30;;
75885;SDS011;64561;44.018;10.144;2024-01-07T07:08:47;3.67;;;2.25;;
75885;SDS011;64561;44.018;10.144;2024-01-07T07:11:15;5.15;;;2.70;;
75885;SDS011;64561;44.018;10.144;2024-01-07T07:13:42;3.40;;;2.33;;
75885;SDS011;64561;44.018;10.144;2024-01-07T07:16:10;4.63;;;2.60;;
75885;SDS011;64561;44.018;10.144;2024-01-07T07:18:37;4.53;;;2.70;;
75885;SDS011;64561;44.018;10.144;2024-01-07T07:21:04;3.83;;;2.80;;
75885;SDS011;64561;44.018;10.144;2024-01-07T07:23:32;5.25;;;3.17;;
75885;SDS011;64561;44.018;10.144;2024-01-07T07:25:59;9.23;;;4.60;;
75885;SDS011;64561;44.018;10.144;2024-01-07T07:28:26;6.68;;;4.07;;
75885;SDS011;64561;44.018;10.144;2024-01-07T07:30:53;4.63;;;3.22;;
75885;SDS011;64561;44.018;10.144;2024-01-07T07:33:21;6.72;;;3.97;;
75885;SDS011;64561;44.018;10.144;2024-01-07T07:35:48;4.88;;;3.67;;
75885;SDS011;64561;44.018;10.144;2024-01-07T07:38:15;5.18;;;4.13;;
75885;SDS011;64561;44.018;10.144;2024-01-07T07:40:42;6.20;;;4.07;;
75885;SDS011;64561;44.018;10.144;2024-01-07T07:43:14;6.22;;;4.07;;
75885;SDS011;64561;44.018;10.144;2024-01-07T07:45:41;7.18;;;4.53;;
75885;SDS011;64561;44.018;10.144;2024-01-07T07:48:08;8.80;;;4.95;;
75885;SDS011;64561;44.018;10.144;2024-01-07T07:50:35;9.65;;;5.18;;
75885;SDS011;64561;44.018;10.144;2024-01-07T07:53:03;6.55;;;5.22;;
75885;SDS011;64561;44.018;10.144;2024-01-07T07:55:30;9.07;;;4.85;;
75885;SDS011;64561;44.018;10.144;2024-01-07T07:57:57;7.72;;;5.45;;
75885;SDS011;64561;44.018;10.144;2024-01-07T08:00:25;7.05;;;5.60;;
75885;SDS011;64561;44.018;10.144;2024-01-07T08:02:53;8.77;;;6.00;;
75885;SDS011;64561;44.018;10.144;2024-01-07T08:05:20;8.02;;;5.68;;
75885;SDS011;64561;44.018;10.144;2024-01-07T08:07:48;9.13;;;6.40;;
75885;SDS011;64561;44.018;10.144;2024-01-07T08:10:15;10.48;;;6.85;;
75885;SDS011;64561;44.018;10.144;2024-01-07T08:12:44;9.80;;;6.10;;
75885;SDS011;64561;44.018;10.144;2024-01-07T08:15:11;9.00;;;6.40;;
75885;SDS011;64561;44.018;10.144;2024-01-07T08:17:39;9.40;;;6.70;;
75885;SDS011;64561;44.018;10.144;2024-01-07T08:20:06;9.15;;;6.60;;
75885;SDS011;64561;44.018;10.144;2024-01-07T08:22:34;10.07;;;6.15;;
75885;SDS011;64561;44.018;10.144;2024-01-07T08:25:01;7.90;;;5.93;;
75885;SDS011;64561;44.018;10.144;2024-01-07T08:27:29;8.02;;;5.45;;
75885;SDS011;64561;44.018;10.144;2024-01-07T08:29:59;8.70;;;5.97;;
75885;SDS011;64561;44.018;10.144;2024-01-07T08:32:30;6.40;;;5.10;;
75885;SDS011;64561;44.018;10.144;2024-01-07T08:34:57;7.53;;;5.78;;
75885;SDS011;64561;44.018;10.144;2024-01-07T08:37:24;7.15;;;5.53;;
75885;SDS011;64561;44.018;10.144;2024-01-07T08:39:51;7.63;;;5.55;;
75885;SDS011;64561;44.018;10.144;2024-01-07T08:42:18;10.23;;;6.25;;
75885;SDS011;64561;44.018;10.144;2024-01-07T08:44:46;7.32;;;6.03;;
75885;SDS011;64561;44.018;10.144;2024-01-07T08:47:14;8.20;;;5.40;;
75885;SDS011;64561;44.018;10.144;2024-01-07T08:49:41;7.93;;;5.95;;
75885;SDS011;64561;44.018;10.144;2024-01-07T08:52:09;9.50;;;6.93;;
75885;SDS011;64561;44.018;10.144;2024-01-07T08:54:36;9.63;;;6.25;;
75885;SDS011;64561;44.018;10.144;2024-01-07T08:57:04;9.82;;;6.10;;
75885;SDS011;64561;44.018;10.144;2024-01-07T08:59:31;7.65;;;5.97;;
75885;SDS011;64561;44.018;10.144;2024-01-07T09:01:58;9.75;;;6.50;;
75885;SDS011;64561;44.018;10.144;2024-01-07T09:04:25;10.27;;;6.82;;
75885;SDS011;64561;44.018;10.144;2024-01-07T09:06:53;9.68;;;6.00;;
75885;SDS011;64561;44.018;10.144;2024-01-07T09:09:20;11.27;;;7.80;;
75885;SDS011;64561;44.018;10.144;2024-01-07T09:11:47;12.25;;;8.65;;
75885;SDS011;64561;44.018;10.144;2024-01-07T09:14:14;15.32;;;8.77;;
75885;SDS011;64561;44.018;10.144;2024-01-07T09:16:41;12.70;;;8.63;;
75885;SDS011;64561;44.018;10.144;2024-01-07T09:19:11;11.82;;;8.02;;
75885;SDS011;64561;44.018;10.144;2024-01-07T09:21:41;10.68;;;7.70;;
75885;SDS011;64561;44.018;10.144;2024-01-07T09:24:08;11.82;;;8.35;;
75885;SDS011;64561;44.018;10.144;2024-01-07T09:26:35;12.27;;;8.30;;
75885;SDS011;64561;44.018;10.144;2024-01-07T09:29:02;12.43;;;8.63;;
75885;SDS011;64561;44.018;10.144;2024-01-07T09:31:30;13.00;;;8.43;;
75885;SDS011;64561;44.018;10.144;2024-01-07T09:33:57;14.25;;;9.10;;
75885;SDS011;64561;44.018;10.144;2024-01-07T09:36:24;13.13;;;8.50;;
75885;SDS011;64561;44.018;10.144;2024-01-07T09:38:56;10.90;;;8.07;;
75885;SDS011;64561;44.018;10.144;2024-01-07T09:41:24;11.13;;;8.43;;
75885;SDS011;64561;44.018;10.144;2024-01-07T09:43:52;10.07;;;7.97;;
75885;SDS011;64561;44.018;10.144;2024-01-07T09:46:20;12.15;;;7.70;;
75885;SDS011;64561;44.018;10.144;2024-01-07T09:48:49;11.95;;;8.23;;
75885;SDS011;64561;44.018;10.144;2024-01-07T09:51:18;13.35;;;7.32;;
75885;SDS011;64561;44.018;10.144;2024-01-07T09:53:49;10.88;;;7.25;;
75885;SDS011;64561;44.018;10.144;2024-01-07T09:56:25;11.60;;;6.85;;
75885;SDS011;64561;44.018;10.144;2024-01-07T09:58:53;9.75;;;6.28;;
75885;SDS011;64561;44.018;10.144;2024-01-07T10:01:23;8.52;;;6.30;;
75885;SDS011;64561;44.018;10.144;2024-01-07T10:03:53;9.07;;;6.40;;
75885;SDS011;64561;44.018;10.144;2024-01-07T10:06:20;11.05;;;7.00;;
75885;SDS011;64561;44.018;10.144;2024-01-07T10:08:47;11.63;;;7.78;;
75885;SDS011;64561;44.018;10.144;2024-01-07T10:11:15;12.27;;;7.05;;
75885;SDS011;64561;44.018;10.144;2024-01-07T10:13:45;11.05;;;7.03;;
75885;SDS011;64561;44.018;10.144;2024-01-07T10:16:14;11.65;;;7.70;;
75885;SDS011;64561;44.018;10.144;2024-01-07T10:18:42;11.30;;;8.18;;
75885;SDS011;64561;44.018;10.144;2024-01-07T10:21:10;12.25;;;9.23;;
75885;SDS011;64561;44.018;10.144;2024-01-07T10:23:37;11.32;;;8.20;;
75885;SDS011;64561;44.018;10.144;2024-01-07T10:26:05;12.73;;;8.18;;
75885;SDS011;64561;44.018;10.144;2024-01-07T10:28:46;8.48;;;6.28;;
75885;SDS011;64561;44.018;10.144;2024-01-07T10:31:13;7.68;;;5.40;;
75885;SDS011;64561;44.018;10.144;2024-01-07T10:33:41;7.38;;;5.60;;
75885;SDS011;64561;44.018;10.144;2024-01-07T10:36:08;8.40;;;5.25;;
75885;SDS011;64561;44.018;10.144;2024-01-07T10:38:36;7.80;;;4.90;;
75885;SDS011;64561;44.018;10.144;2024-01-07T10:41:08;6.47;;;4.15;;
75885;SDS011;64561;44.018;10.144;2024-01-07T10:43:38;6.47;;;4.35;;
75885;SDS011;64561;44.018;10.144;2024-01-07T10:46:06;7.93;;;5.03;;
75885;SDS011;64561;44.018;10.144;2024-01-07T10:48:37;6.47;;;4.88;;
75885;SDS011;64561;44.018;10.144;2024-01-07T10:51:06;8.93;;;5.47;;
75885;SDS011;64561;44.018;10.144;2024-01-07T10:53:37;6.75;;;4.70;;
75885;SDS011;64561;44.018;10.144;2024-01-07T10:56:11;6.72;;;3.88;;
75885;SDS011;64561;44.018;10.144;2024-01-07T10:58:39;6.13;;;4.40;;
75885;SDS011;64561;44.018;10.144;2024-01-07T11:01:08;8.30;;;3.88;;
75885;SDS011;64561;44.018;10.144;2024-01-07T11:03:55;5.18;;;3.65;;
75885;SDS011;64561;44.018;10.144;2024-01-07T11:06:37;4.78;;;3.78;;
75885;SDS011;64561;44.018;10.144;2024-01-07T11:09:20;19.60;;;16.73;;
75885;SDS011;64561;44.018;10.144;2024-01-07T11:11:53;10.43;;;8.70;;
75885;SDS011;64561;44.018;10.144;2024-01-07T11:17:07;5.70;;;3.88;;
75885;SDS011;64561;44.018;10.144;2024-01-07T11:19:35;7.65;;;6.25;;
75885;SDS011;64561;44.018;10.144;2024-01-07T11:22:22;8.38;;;6.28;;
75885;SDS011;64561;44.018;10.144;2024-01-07T11:24:57;7.97;;;5.53;;
75885;SDS011;64561;44.018;10.144;2024-01-07T11:27:28;9.23;;;4.53;;
75885;SDS011;64561;44.018;10.144;2024-01-07T11:32:34;5.50;;;4.38;;
75885;SDS011;64561;44.018;10.144;2024-01-07T11:35:05;6.95;;;4.55;;
75885;SDS011;64561;44.018;10.144;2024-01-07T11:37:33;5.55;;;3.55;;
75885;SDS011;64561;44.018;10.144;2024-01-07T11:40:03;5.40;;;3.78;;
75885;SDS011;64561;44.018;10.144;2024-01-07T11:42:31;6.72;;;4.28;;
75885;SDS011;64561;44.018;10.144;2024-01-07T11:44:59;5.70;;;4.43;;
75885;SDS011;64561;44.018;10.144;2024-01-07T11:47:30;8.23;;;4.40;;
75885;SDS011;64561;44.018;10.144;2024-01-07T11:49:57;5.65;;;4.07;;
75885;SDS011;64561;44.018;10.144;2024-01-07T11:52:24;6.18;;;3.58;;
75885;SDS011;64561;44.018;10.144;2024-01-07T11:54:52;8.15;;;4.60;;
75885;SDS011;64561;44.018;10.144;2024-01-07T11:57:19;6.93;;;4.93;;
75885;SDS011;64561;44.018;10.144;2024-01-07T11:59:46;6.97;;;4.32;;
75885;SDS011;64561;44.018;10.144;2024-01-07T12:02:14;5.40;;;3.85;;
75885;SDS011;64561;44.018;10.144;2024-01-07T12:04:44;6.88;;;4.25;;
75885;SDS011;64561;44.018;10.144;2024-01-07T12:07:11;8.82;;;5.55;;
75885;SDS011;64561;44.018;10.144;2024-01-07T12:12:41;7.53;;;4.95;;
75885;SDS011;64561;44.018;10.144;2024-01-07T12:15:09;14.30;;;8.45;;
75885;SDS011;64561;44.018;10.144;2024-01-07T12:17:38;9.65;;;6.00;;
75885;SDS011;64561;44.018;10.144;2024-01-07T12:20:07;10.10;;;5.95;;
75885;SDS011;64561;44.018;10.144;2024-01-07T12:22:38;9.27;;;5.40;;
75885;SDS011;64561;44.018;10.144;2024-01-07T12:25:06;7.43;;;5.93;;
75885;SDS011;64561;44.018;10.144;2024-01-07T12:27:33;8.95;;;4.80;;
75885;SDS011;64561;44.018;10.144;2024-01-07T12:30:02;5.65;;;3.60;;
75885;SDS011;64561;44.018;10.144;2024-01-07T12:32:31;4.93;;;3.17;;
75885;SDS011;64561;44.018;10.144;2024-01-07T12:34:59;4.78;;;2.90;;
75885;SDS011;64561;44.018;10.144;2024-01-07T12:37:30;5.15;;;3.47;;
75885;SDS011;64561;44.018;10.144;2024-01-07T12:39:57;6.90;;;3.70;;
75885;SDS011;64561;44.018;10.144;2024-01-07T12:42:25;6.63;;;4.13;;
75885;SDS011;64561;44.018;10.144;2024-01-07T12:44:52;5.68;;;4.28;;
75885;SDS011;64561;44.018;10.144;2024-01-07T12:47:19;5.32;;;4.00;;
75885;SDS011;64561;44.018;10.144;2024-01-07T12:49:47;10.90;;;4.72;;
75885;SDS011;64561;44.018;10.144;2024-01-07T12:52:14;6.80;;;3.88;;
75885;SDS011;64561;44.018;10.144;2024-01-07T12:54:42;6.70;;;4.47;;
75885;SDS011;64561;44.018;10.144;2024-01-07T12:57:09;9.00;;;4.90;;
75885;SDS011;64561;44.018;10.144;2024-01-07T12:59:37;5.85;;;4.95;;
75885;SDS011;64561;44.018;10.144;2024-01-07T13:02:07;8.32;;;5.18;;
75885;SDS011;64561;44.018;10.144;2024-01-07T13:04:36;8.90;;;6.88;;
75885;SDS011;64561;44.018;10.144;2024-01-07T13:07:03;11.38;;;6.97;;
75885;SDS011;64561;44.018;10.144;2024-01-07T13:09:31;10.20;;;6.20;;
75885;SDS011;64561;44.018;10.144;2024-01-07T13:11:58;10.25;;;5.63;;
75885;SDS011;64561;44.018;10.144;2024-01-07T13:14:26;9.10;;;5.90;;
75885;SDS011;64561;44.018;10.144;2024-01-07T13:16:53;6.15;;;5.32;;
75885;SDS011;64561;44.018;10.144;2024-01-07T13:19:21;7.10;;;5.20;;
75885;SDS011;64561;44.018;10.144;2024-01-07T13:21:48;10.48;;;7.65;;
75885;SDS011;64561;44.018;10.144;2024-01-07T13:24:16;11.20;;;7.18;;
75885;SDS011;64561;44.018;10.144;2024-01-07T13:26:43;11.88;;;7.88;;
75885;SDS011;64561;44.018;10.144;2024-01-07T13:29:11;9.52;;;7.15;;
75885;SDS011;64561;44.018;10.144;2024-01-07T13:31:39;12.98;;;7.88;;
75885;SDS011;64561;44.018;10.144;2024-01-07T13:34:06;12.32;;;7.85;;
75885;SDS011;64561;44.018;10.144;2024-01-07T13:36:35;14.00;;;9.25;;
75885;SDS011;64561;44.018;10.144;2024-01-07T13:39:02;12.20;;;7.57;;
75885;SDS011;64561;44.018;10.144;2024-01-07T13:41:30;10.45;;;7.47;;
75885;SDS011;64561;44.018;10.144;2024-01-07T13:43:59;16.20;;;11.90;;
75885;SDS011;64561;44.018;10.144;2024-01-07T13:46:27;11.82;;;8.57;;
75885;SDS011;64561;44.018;10.144;2024-01-07T13:48:57;10.15;;;6.68;;
75885;SDS011;64561;44.018;10.144;2024-01-07T13:51:24;9.90;;;6.72;;
75885;SDS011;64561;44.018;10.144;2024-01-07T13:53:53;10.40;;;6.93;;
75885;SDS011;64561;44.018;10.144;2024-01-07T13:56:20;7.70;;;5.07;;
75885;SDS011;64561;44.018;10.144;2024-01-07T13:58:47;5.88;;;4.20;;
75885;SDS011;64561;44.018;10.144;2024-01-07T14:01:17;5.15;;;4.03;;
75885;SDS011;64561;44.018;10.144;2024-01-07T14:03:44;5.72;;;3.70;;
75885;SDS011;64561;44.018;10.144;2024-01-07T14:06:15;6.82;;;4.75;;
75885;SDS011;64561;44.018;10.144;2024-01-07T14:08:42;7.22;;;4.03;;
75885;SDS011;64561;44.018;10.144;2024-01-07T14:11:09;4.78;;;2.85;;
75885;SDS011;64561;44.018;10.144;2024-01-07T14:13:36;4.90;;;2.65;;
75885;SDS011;64561;44.018;10.144;2024-01-07T14:16:04;6.05;;;3.22;;
75885;SDS011;64561;44.018;10.144;2024-01-07T14:18:31;13.55;;;9.07;;
75885;SDS011;64561;44.018;10.144;2024-01-07T14:20:59;20.65;;;12.63;;
75885;SDS011;64561;44.018;10.144;2024-01-07T14:23:26;14.40;;;9.48;;
75885;SDS011;64561;44.018;10.144;2024-01-07T14:25:54;16.42;;;10.05;;
75885;SDS011;64561;44.018;10.144;2024-01-07T14:28:21;36.28;;;22.83;;
75885;SDS011;64561;44.018;10.144;2024-01-07T14:30:48;18.08;;;10.68;;
75885;SDS011;64561;44.018;10.144;2024-01-07T14:33:16;11.20;;;7.95;;
75885;SDS011;64561;44.018;10.144;2024-01-07T14:35:43;6.65;;;5.03;;
75885;SDS011;64561;44.018;10.144;2024-01-07T14:38:10;7.47;;;3.90;;
75885;SDS011;64561;44.018;10.144;2024-01-07T14:40:38;6.80;;;3.80;;
75885;SDS011;64561;44.018;10.144;2024-01-07T14:43:13;6.25;;;3.58;;
75885;SDS011;64561;44.018;10.144;2024-01-07T14:45:40;3.80;;;2.58;;